Toccoa Rg Letourneau Field, T, GA

5:16 AM EST on November 15, 2019 (GMT -0500)
Toccoa-Letourneau

Weather History for KTOC - October, 2019

Change the Weather History Date:

Thursday, October 17, 2019

  Actual Average Record
Temperature  
Mean Temperature 56 °F -  
Max Temperature 71 °F 73 °F 85 °F (2016)
Min Temperature 42 °F 48 °F 41 °F (2015)
Degree Days  
Heating Degree Days 8    
Growing Degree Days 6 (Base 50)    
Moisture  
Dew Point 37 °F    
Average Humidity 53    
Maximum Humidity 89    
Minimum Humidity 24    
Precipitation  
Precipitation 0.00 in - - ()
Sea Level Pressure  
Sea Level Pressure 29.92 in    
Wind  
Wind Speed 3 mph ()    
Max Wind Speed 7 mph    
Max Gust Speed 16 mph    
Visibility 10.0 miles    
Events      
Averages and records for this station are not official NWS values.
T = Trace of Precipitation, MM = Missing Value Source: Averaged Metar Reports

Daily Weather History Graph

Daily Weather History Graph

Search for Another Location

Airport or City:

Astronomy

Oct. 17, 2019 Rise Set
Actual Time 7:40 AM EDT 6:56 PM EDT
Civil Twilight 7:14 AM EDT 7:21 PM EDT
Nautical Twilight 6:45 AM EDT 7:51 PM EDT
Astronomical Twilight 6:16 AM EDT 8:20 PM EDT
Moon 9:35 PM EDT (10/17) 11:03 AM EDT (10/17)
Length of Visible Light 12h 06m
Length of Day
11h 16m
Waning Gibbous, 87% of the Moon is Illuminated
Oct 17
Waning Gibbous
Oct 21
Last Quarter
Oct 27
New
Nov 4
First Quarter
Nov 12
Full

Hourly Weather History & Observations

Time (EDT) Temp. Windchill Dew Point Humidity Pressure Visibility Wind Dir Wind Speed Gust Speed Precip Events Conditions
12:15 AM 51.3 °F - 41.4 °F 69% 29.90 in 10.0 mi Calm Calm - N/A   Clear
12:35 AM 51.6 °F - 39.7 °F 64% 29.89 in 10.0 mi Calm Calm - N/A   Clear
12:55 AM 49.1 °F - 41.5 °F 75% 29.90 in 10.0 mi Calm Calm - N/A   Clear
1:15 AM 47.7 °F - 42.4 °F 82% 29.90 in 10.0 mi Calm Calm - N/A   Clear
1:35 AM 45.9 °F - 41.7 °F 85% 29.89 in 10.0 mi Calm Calm - N/A   Clear
1:55 AM 45.3 °F - 42.3 °F 89% 29.90 in 10.0 mi Calm Calm - N/A   Clear
2:15 AM 47.1 °F - 41.0 °F 79% 29.90 in 10.0 mi NW 3.5 mph - N/A   Clear
2:35 AM 46.9 °F - 40.8 °F 79% 29.90 in 10.0 mi NW 5.8 mph - N/A   Clear
2:55 AM 47.7 °F - 40.3 °F 76% 29.90 in 10.0 mi Calm Calm - N/A   Clear
3:15 AM 47.3 °F - 39.7 °F 75% 29.90 in 10.0 mi NW 5.8 mph - N/A   Clear
3:35 AM 47.3 °F - 39.4 °F 74% 29.90 in 10.0 mi NW 4.6 mph - N/A   Clear
3:55 AM 47.3 °F - 39.2 °F 73% 29.90 in 10.0 mi NW 5.8 mph - N/A   Clear
4:15 AM 47.3 °F - 38.8 °F 72% 29.90 in 10.0 mi NW 4.6 mph - N/A   Clear
4:35 AM 45.9 °F - 39.2 °F 78% 29.89 in 10.0 mi Calm Calm - N/A   Clear
4:55 AM 45.7 °F 42.7 °F 39.2 °F 78% 29.89 in 10.0 mi NNW 5.8 mph - N/A   Clear
5:15 AM 46.2 °F 45.0 °F 38.3 °F 74% 29.89 in 10.0 mi NNW 3.5 mph - N/A   Clear
5:35 AM 45.5 °F 44.2 °F 38.5 °F 76% 29.90 in 10.0 mi NNW 3.5 mph - N/A   Clear
5:55 AM 45.1 °F 43.7 °F 38.3 °F 77% 29.90 in 10.0 mi NW 3.5 mph - N/A   Clear
6:15 AM 44.8 °F 43.3 °F 38.3 °F 78% 29.90 in 10.0 mi NW 3.5 mph - N/A   Clear
6:35 AM 45.0 °F - 37.9 °F 76% 29.91 in 10.0 mi Calm Calm - N/A   Clear
6:55 AM 42.6 °F 40.9 °F 38.5 °F 85% 29.92 in 10.0 mi NW 3.5 mph - N/A   Clear
7:15 AM 44.4 °F 42.0 °F 37.9 °F 78% 29.92 in 10.0 mi WNW 4.6 mph - N/A   Clear
7:35 AM 43.5 °F 41.9 °F 37.6 °F 80% 29.92 in 10.0 mi West 3.5 mph - N/A   Clear
7:55 AM 44.8 °F 42.4 °F 37.4 °F 75% 29.93 in 10.0 mi West 4.6 mph - N/A   Clear
8:15 AM 46.0 °F 44.8 °F 37.4 °F 72% 29.93 in 10.0 mi WNW 3.5 mph - N/A   Clear
8:35 AM 45.7 °F - 40.1 °F 81% 29.94 in 10.0 mi Calm Calm - N/A   Clear
8:55 AM 48.2 °F - 39.9 °F 73% 29.94 in 10.0 mi Calm Calm - N/A   Clear
9:15 AM 50.2 °F - 36.9 °F 60% 29.94 in 10.0 mi North 4.6 mph - N/A   Clear
9:35 AM 52.5 °F - 36.7 °F 55% 29.95 in 10.0 mi North 3.5 mph - N/A   Clear
9:55 AM 55.2 °F - 36.1 °F 49% 29.96 in 10.0 mi Calm Calm - N/A   Clear
10:15 AM 56.7 °F - 33.8 °F 42% 29.97 in 10.0 mi Calm Calm - N/A   Clear
10:35 AM 57.7 °F - 38.3 °F 48% 29.98 in 10.0 mi SW 5.8 mph - N/A   Clear
10:55 AM 57.9 °F - 32.7 °F 39% 29.97 in 10.0 mi Calm Calm - N/A   Clear
11:15 AM 60.1 °F - 36.1 °F 41% 29.97 in 10.0 mi West 4.6 mph - N/A   Clear
11:35 AM 60.8 °F - 35.1 °F 38% 29.96 in 10.0 mi Calm Calm - N/A   Clear
11:55 AM 62.1 °F - 36.7 °F 39% 29.97 in 10.0 mi West 5.8 mph - N/A   Clear
12:15 PM 63.3 °F - 37.2 °F 38% 29.97 in 10.0 mi SW 5.8 mph - N/A   Clear
12:35 PM 64.6 °F - 36.3 °F 35% 29.96 in 10.0 mi WSW 4.6 mph - N/A   Clear
1:15 PM 66.4 °F - 34.9 °F 31% 29.95 in 10.0 mi WSW 6.9 mph - N/A   Clear
1:35 PM 68.0 °F - 34.0 °F 28% 29.94 in 10.0 mi SW 4.6 mph - N/A   Clear
1:55 PM 68.2 °F - 32.4 °F 26% 29.93 in 10.0 mi West 6.9 mph - N/A   Clear
2:15 PM 68.9 °F - 32.4 °F 26% 29.93 in 10.0 mi West 3.5 mph - N/A   Clear
2:35 PM 70.2 °F - 32.9 °F 25% 29.92 in 10.0 mi SW 6.9 mph 16.1 mph N/A   Clear
2:55 PM 69.8 °F - 32.4 °F 25% 29.91 in 10.0 mi WNW 5.8 mph - N/A   Clear
3:15 PM 70.2 °F - 32.5 °F 25% 29.91 in 10.0 mi West 6.9 mph - N/A   Clear
3:35 PM 70.3 °F - 32.4 °F 25% 29.90 in 10.0 mi WNW 4.6 mph - N/A   Clear
3:55 PM 71.1 °F - 32.0 °F 24% 29.90 in 10.0 mi WNW 4.6 mph - N/A   Clear
4:15 PM 71.2 °F - 33.3 °F 25% 29.89 in 10.0 mi West 6.9 mph - N/A   Clear
4:35 PM 70.9 °F - 33.1 °F 25% 29.89 in 10.0 mi WSW 4.6 mph - N/A   Clear
4:55 PM 70.5 °F - 33.4 °F 26% 29.88 in 10.0 mi NNW 4.6 mph - N/A   Clear
5:15 PM 70.2 °F - 34.0 °F 26% 29.88 in 10.0 mi West 4.6 mph - N/A   Clear
5:35 PM 69.8 °F - 33.3 °F 26% 29.88 in 10.0 mi West 5.8 mph - N/A   Clear
5:55 PM 68.9 °F - 33.1 °F 27% 29.89 in 10.0 mi WNW 3.5 mph - N/A   Clear
6:15 PM 67.1 °F - 34.0 °F 29% 29.90 in 10.0 mi West 4.6 mph - N/A   Clear
6:35 PM 65.7 °F - 35.6 °F 33% 29.91 in 10.0 mi West 5.8 mph - N/A   Clear
6:55 PM 63.5 °F - 37.4 °F 38% 29.91 in 10.0 mi West 5.8 mph - N/A   Clear
7:15 PM 62.1 °F - 38.1 °F 41% 29.91 in 10.0 mi WNW 5.8 mph - N/A   Clear
7:35 PM 60.3 °F - 39.2 °F 46% 29.91 in 10.0 mi WNW 4.6 mph - N/A   Clear
7:55 PM 59.0 °F - 39.2 °F 48% 29.91 in 10.0 mi WNW 4.6 mph - N/A   Clear
8:15 PM 58.3 °F - 39.2 °F 49% 29.92 in 10.0 mi NW 3.5 mph - N/A   Clear
8:35 PM 57.2 °F - 39.4 °F 51% 29.92 in 10.0 mi NW 3.5 mph - N/A   Clear
8:55 PM 56.3 °F - 39.2 °F 53% 29.91 in 10.0 mi NW 3.5 mph - N/A   Clear
9:15 PM 56.3 °F - 38.3 °F 51% 29.91 in 10.0 mi NW 4.6 mph - N/A   Clear
9:35 PM 56.7 °F - 37.8 °F 49% 29.92 in 10.0 mi Calm Calm - N/A   Clear
9:55 PM 56.1 °F - 37.8 °F 50% 29.93 in 10.0 mi North 3.5 mph - N/A   Clear
10:15 PM 54.1 °F - 37.8 °F 54% 29.93 in 10.0 mi Calm Calm - N/A   Clear
10:35 PM 54.9 °F - 36.1 °F 49% 29.93 in 10.0 mi North 4.6 mph - N/A   Clear
10:55 PM 54.0 °F - 37.4 °F 54% 29.94 in 10.0 mi Calm Calm - N/A   Clear
11:15 PM 54.5 °F - 36.0 °F 50% 29.94 in 10.0 mi North 3.5 mph - N/A   Clear
11:35 PM 53.1 °F - 36.7 °F 54% 29.94 in 10.0 mi NNW 4.6 mph - N/A   Clear
11:55 PM 53.4 °F - 36.0 °F 52% 29.94 in 10.0 mi Calm Calm - N/A   Clear